Time;durP1;ratioP1;P1;durP2;ratioP2;P2;SDS_P1;SDS_P2;PMS_P1;PMS_P2;Temp;Humidity;BMP_temperature;BMP_pressure;BME280_temperature;BME280_humidity;BME280_pressure;Samples;Min_cycle;Max_cycle;Signal;HPM_P1;HPM_P2
2022/11/15 00:01:46;;;;;;;24.27;15.20;;;7.70;92.70;;;;;;5078625;28;20029;-76
2022/11/15 00:04:12;;;;;;;22.13;14.65;;;7.80;92.70;;;;;;5068624;28;20103;-75
2022/11/15 00:06:37;;;;;;;24.60;14.80;;;7.80;92.60;;;;;;5067452;28;20086;-75
2022/11/15 00:09:03;;;;;;;23.73;14.68;;;7.80;92.60;;;;;;5058697;28;20496;-74
2022/11/15 00:11:28;;;;;;;22.58;14.15;;;7.80;92.50;;;;;;5063930;28;20040;-74
2022/11/15 00:13:57;;;;;;;21.20;13.88;;;7.70;92.50;;;;;;5064954;28;20027;-74
2022/11/15 00:16:24;;;;;;;22.48;13.77;;;7.60;92.60;;;;;;5061401;28;20117;-74
2022/11/15 00:18:50;;;;;;;24.10;14.65;;;7.50;92.90;;;;;;5061991;28;20442;-74
2022/11/15 00:21:16;;;;;;;21.95;14.27;;;7.40;93.40;;;;;;5068282;28;20108;-74
2022/11/15 00:23:42;;;;;;;23.15;13.50;;;7.20;93.40;;;;;;5066263;28;20045;-75
2022/11/15 00:26:12;;;;;;;21.10;14.65;;;7.10;93.80;;;;;;5066974;28;20107;-73
2022/11/15 00:28:37;;;;;;;23.77;14.38;;;7.10;94.00;;;;;;5068081;28;20710;-73
2022/11/15 00:31:04;;;;;;;22.90;14.10;;;7.10;94.30;;;;;;5069009;28;20078;-73
2022/11/15 00:33:30;;;;;;;22.27;14.50;;;7.00;94.50;;;;;;5066475;28;20043;-74
2022/11/15 00:36:10;;;;;;;26.77;15.65;;;6.80;94.50;;;;;;5070215;28;20032;-75
2022/11/15 00:38:37;;;;;;;23.45;14.82;;;6.70;94.50;;;;;;5070750;28;20043;-73
2022/11/15 00:41:04;;;;;;;21.48;13.50;;;6.70;95.00;;;;;;5075011;28;20546;-74
2022/11/15 00:43:30;;;;;;;26.77;14.82;;;6.50;95.00;;;;;;5078923;28;20919;-73
2022/11/15 00:45:55;;;;;;;22.48;14.27;;;6.50;95.40;;;;;;5075761;28;20052;-74
2022/11/15 00:48:21;;;;;;;24.80;14.70;;;6.30;95.40;;;;;;5076189;28;20426;-73
2022/11/15 00:50:47;;;;;;;28.27;15.00;;;6.30;95.60;;;;;;5072248;28;20044;-74
2022/11/15 00:53:12;;;;;;;24.80;14.77;;;6.20;95.90;;;;;;5070215;28;20032;-74
2022/11/15 00:55:37;;;;;;;28.08;16.15;;;6.10;96.10;;;;;;5074175;28;20039;-75
2022/11/15 00:58:03;;;;;;;26.67;15.00;;;6.00;96.10;;;;;;5076863;28;20024;-73
2022/11/15 01:00:28;;;;;;;29.67;15.75;;;6.00;96.40;;;;;;5087572;28;20164;-74
2022/11/15 01:02:54;;;;;;;28.48;16.65;;;6.10;96.70;;;;;;5072970;28;20414;-73
2022/11/15 01:05:20;;;;;;;25.17;16.73;;;6.00;96.60;;;;;;5074624;28;20036;-73
2022/11/15 01:07:45;;;;;;;26.75;15.52;;;5.90;96.70;;;;;;5070129;28;20036;-73
2022/11/15 01:10:11;;;;;;;29.60;16.17;;;5.80;96.70;;;;;;5074355;28;20388;-74
2022/11/15 01:12:37;;;;;;;28.48;16.30;;;5.90;97.10;;;;;;5077778;28;20410;-75
2022/11/15 01:15:04;;;;;;;30.73;16.52;;;5.80;97.00;;;;;;5073485;28;20036;-74
2022/11/15 01:17:31;;;;;;;27.38;16.63;;;5.70;97.10;;;;;;5074022;28;20550;-73
2022/11/15 01:19:56;;;;;;;32.88;15.82;;;5.70;97.10;;;;;;5072103;28;20519;-73
2022/11/15 01:22:21;;;;;;;29.55;17.00;;;5.70;97.20;;;;;;5072948;28;20036;-75
2022/11/15 01:24:48;;;;;;;26.73;15.75;;;5.60;97.30;;;;;;5067568;28;20037;-74
2022/11/15 01:27:14;;;;;;;30.63;16.38;;;5.50;97.30;;;;;;5070982;28;20081;-74
2022/11/15 01:29:39;;;;;;;29.73;16.05;;;5.50;97.50;;;;;;5071929;28;20511;-73
2022/11/15 01:32:05;;;;;;;26.25;15.57;;;5.50;97.60;;;;;;5076245;28;20044;-73
2022/11/15 01:34:30;;;;;;;28.33;16.10;;;5.40;97.70;;;;;;5069776;28;20305;-74
2022/11/15 01:36:56;;;;;;;28.63;17.27;;;5.40;97.70;;;;;;5083514;28;20020;-73
2022/11/15 01:39:21;;;;;;;32.20;17.08;;;5.50;97.90;;;;;;5074455;28;20083;-74
2022/11/15 01:41:47;;;;;;;32.55;17.20;;;5.50;98.00;;;;;;5094742;28;20028;-73
2022/11/15 01:44:31;;;;;;;31.95;16.30;;;5.40;97.90;;;;;;5074504;28;20029;-74
2022/11/15 01:46:59;;;;;;;30.20;16.10;;;5.50;98.10;;;;;;5093727;28;20097;-76
2022/11/15 01:49:26;;;;;;;28.13;16.77;;;5.30;97.90;;;;;;5080152;28;20033;-75
2022/11/15 01:51:53;;;;;;;31.83;16.83;;;5.40;98.10;;;;;;5074599;28;20036;-75
2022/11/15 01:54:21;;;;;;;30.50;15.50;;;5.30;98.20;;;;;;5067803;28;20027;-75
2022/11/15 01:56:55;;;;;;;30.88;16.73;;;5.40;98.30;;;;;;5071940;28;20071;-75
2022/11/15 01:59:21;;;;;;;32.70;16.48;;;5.50;98.60;;;;;;5066079;28;20448;-78
2022/11/15 02:01:47;;;;;;;29.15;17.27;;;5.40;98.30;;;;;;5070582;28;20036;-76
2022/11/15 02:04:28;;;;;;;37.40;17.33;;;5.60;98.50;;;;;;5072379;28;20531;-75
2022/11/15 02:06:54;;;;;;;29.45;16.52;;;5.60;98.40;;;;;;5069275;28;20384;-75
2022/11/15 02:09:19;;;;;;;35.38;15.43;;;5.50;98.40;;;;;;5071581;28;20036;-77
2022/11/15 02:11:47;;;;;;;33.85;17.75;;;5.60;98.50;;;;;;5074923;28;20089;-75
2022/11/15 02:14:15;;;;;;;35.28;16.00;;;5.60;98.50;;;;;;5068184;28;20468;-76
2022/11/15 02:16:49;;;;;;;30.77;15.15;;;5.60;98.40;;;;;;5072497;28;20028;-75
2022/11/15 02:19:33;;;;;;;30.55;15.30;;;5.60;98.60;;;;;;5072678;28;20028;-76
2022/11/15 02:22:16;;;;;;;33.70;16.33;;;5.70;98.60;;;;;;5070010;28;20480;-76
2022/11/15 02:25:03;;;;;;;31.27;15.93;;;5.80;98.60;;;;;;5057513;28;20036;-76
2022/11/15 02:27:47;;;;;;;32.83;14.85;;;5.90;98.50;;;;;;5063528;28;20032;-75
2022/11/15 02:30:23;;;;;;;33.40;15.70;;;5.90;98.50;;;;;;5064360;28;20166;-76
2022/11/15 02:33:00;;;;;;;33.80;16.42;;;6.10;98.50;;;;;;5068852;28;20025;-76
2022/11/15 02:35:39;;;;;;;29.10;15.48;;;6.10;98.30;;;;;;5068594;28;20112;-74
2022/11/15 02:38:17;;;;;;;31.00;15.80;;;6.30;98.30;;;;;;5062891;28;20036;-75
2022/11/15 02:40:58;;;;;;;29.10;15.60;;;6.40;98.00;;;;;;5065502;28;20112;-75
2022/11/15 02:43:56;;;;;;;26.73;15.13;;;6.40;97.70;;;;;;5069328;28;20031;-76
2022/11/15 02:49:29;;;;;;;32.65;14.75;;;6.50;97.40;;;;;;5071308;28;20125;-76
2022/11/15 02:51:55;;;;;;;26.35;14.27;;;6.40;97.10;;;;;;5069448;28;20388;-76
2022/11/15 02:54:28;;;;;;;28.30;14.90;;;6.60;97.30;;;;;;5072755;28;20457;-75
2022/11/15 02:56:57;;;;;;;31.17;15.15;;;6.60;96.90;;;;;;5063776;28;20115;-75
2022/11/15 02:59:28;;;;;;;30.27;15.80;;;6.70;97.00;;;;;;5062206;28;20044;-77
2022/11/15 03:02:16;;;;;;;27.50;15.05;;;6.90;96.60;;;;;;5073978;28;20042;-76
2022/11/15 03:04:47;;;;;;;25.88;13.73;;;7.10;96.40;;;;;;5064297;28;20039;-76
2022/11/15 03:07:26;;;;;;;29.27;14.18;;;7.00;96.20;;;;;;5078892;28;20426;-76
2022/11/15 03:10:12;;;;;;;30.35;15.10;;;7.10;96.30;;;;;;5062566;28;20036;-76
2022/11/15 03:12:47;;;;;;;25.80;13.80;;;7.10;96.30;;;;;;5065628;28;20370;-78
2022/11/15 03:15:41;;;;;;;24.30;14.27;;;7.20;96.10;;;;;;5065433;28;20055;-76
2022/11/15 03:18:19;;;;;;;27.33;13.52;;;7.30;96.00;;;;;;5069959;28;20046;-76
2022/11/15 03:20:46;;;;;;;26.02;13.48;;;7.30;95.90;;;;;;5071198;28;20154;-75
2022/11/15 03:23:13;;;;;;;23.67;12.90;;;7.50;95.80;;;;;;5070235;28;20148;-76
2022/11/15 03:25:43;;;;;;;24.02;13.13;;;7.40;95.60;;;;;;5064180;28;20038;-76
2022/11/15 03:28:12;;;;;;;24.65;13.32;;;7.40;95.80;;;;;;5066160;28;20032;-75
2022/11/15 03:30:39;;;;;;;22.10;11.73;;;7.30;95.80;;;;;;5068362;28;20607;-75
2022/11/15 03:33:06;;;;;;;20.65;12.55;;;7.40;96.10;;;;;;5069250;28;20032;-76
2022/11/15 03:35:38;;;;;;;19.40;12.40;;;7.40;96.00;;;;;;5066144;28;20032;-75
2022/11/15 03:38:19;;;;;;;18.63;11.80;;;7.50;96.00;;;;;;5068254;28;20425;-76
2022/11/15 03:40:52;;;;;;;22.23;11.50;;;7.60;96.00;;;;;;5071982;28;20435;-75
2022/11/15 03:43:44;;;;;;;24.98;10.43;;;7.70;96.10;;;;;;5068957;28;20412;-76
2022/11/15 03:46:36;;;;;;;16.58;10.40;;;7.80;95.80;;;;;;5064856;28;20497;-76
2022/11/15 03:49:22;;;;;;;18.50;10.18;;;7.90;95.80;;;;;;5070574;28;20044;-76
2022/11/15 03:51:47;;;;;;;17.90;9.93;;;7.90;95.60;;;;;;5056814;28;20029;-75
2022/11/15 03:54:13;;;;;;;18.80;9.93;;;7.90;95.60;;;;;;5069487;28;20032;-76
2022/11/15 03:56:39;;;;;;;16.42;10.05;;;8.00;95.50;;;;;;5069214;28;20028;-75
2022/11/15 03:59:04;;;;;;;17.35;10.15;;;8.00;95.60;;;;;;5060446;28;20028;-77
2022/11/15 04:01:30;;;;;;;14.85;9.25;;;8.10;95.70;;;;;;5069893;28;20028;-76
2022/11/15 04:03:55;;;;;;;15.85;9.23;;;8.10;95.40;;;;;;5071500;28;20393;-75
2022/11/15 04:06:21;;;;;;;15.00;9.93;;;8.10;95.40;;;;;;5068468;28;20040;-76
2022/11/15 04:08:46;;;;;;;16.17;10.00;;;8.10;95.40;;;;;;5069990;28;20043;-75
2022/11/15 04:11:11;;;;;;;14.63;9.80;;;8.00;95.50;;;;;;5069969;28;20082;-76
2022/11/15 04:13:37;;;;;;;14.65;9.50;;;8.00;95.40;;;;;;5067644;28;20068;-76
2022/11/15 04:16:03;;;;;;;16.50;9.25;;;8.00;95.50;;;;;;5069471;28;20464;-77
2022/11/15 04:18:28;;;;;;;17.30;9.00;;;8.00;95.50;;;;;;5074578;28;20115;-75
2022/11/15 04:26:23;;;;;;;17.90;9.15;;;8.10;95.70;;;;;;5056264;28;20035;-74
2022/11/15 04:31:33;;;;;;;14.30;8.80;;;8.10;95.60;;;;;;5070617;28;20380;-73
2022/11/15 04:33:59;;;;;;;16.65;9.35;;;8.10;95.70;;;;;;5076584;28;20059;-74
2022/11/15 04:39:08;;;;;;;14.95;9.88;;;8.10;95.80;;;;;;5082511;28;20054;-74
2022/11/15 04:41:34;;;;;;;17.70;9.32;;;8.20;95.80;;;;;;5067031;28;20116;-73
2022/11/15 04:43:59;;;;;;;15.63;9.32;;;8.20;95.60;;;;;;5062446;28;20159;-74
2022/11/15 04:46:25;;;;;;;15.30;9.77;;;8.20;95.60;;;;;;5066414;28;20124;-74
2022/11/15 04:48:52;;;;;;;17.52;9.60;;;8.30;95.70;;;;;;5069546;28;20038;-73
2022/11/15 04:51:18;;;;;;;19.63;9.55;;;8.30;95.70;;;;;;5066556;28;20044;-73
2022/11/15 04:53:43;;;;;;;14.65;8.85;;;8.40;95.40;;;;;;5065201;28;20089;-74
2022/11/15 04:56:09;;;;;;;16.60;9.50;;;8.50;95.50;;;;;;5070398;28;20040;-74
2022/11/15 04:58:35;;;;;;;16.10;9.05;;;8.50;95.10;;;;;;5067229;28;20071;-73
2022/11/15 05:01:08;;;;;;;14.80;9.30;;;8.60;95.10;;;;;;5068363;28;20036;-73
2022/11/15 05:06:18;;;;;;;14.00;8.40;;;8.60;95.10;;;;;;5070677;28;20032;-73
2022/11/15 05:08:43;;;;;;;11.93;8.40;;;8.70;94.90;;;;;;5069405;28;20469;-73
2022/11/15 05:11:09;;;;;;;15.77;9.13;;;8.70;95.00;;;;;;5071027;28;20036;-74
2022/11/15 05:13:34;;;;;;;13.73;8.93;;;8.80;94.90;;;;;;5089203;28;20035;-74
2022/11/15 05:15:59;;;;;;;14.57;8.50;;;8.80;94.80;;;;;;5074893;28;20115;-74
2022/11/15 05:18:25;;;;;;;15.93;8.20;;;8.90;94.90;;;;;;5074193;28;20037;-73
2022/11/15 05:20:50;;;;;;;14.75;8.00;;;9.00;94.90;;;;;;5078406;28;20063;-74
2022/11/15 05:23:16;;;;;;;12.20;8.70;;;9.00;94.90;;;;;;5070042;28;20033;-73
2022/11/15 05:25:41;;;;;;;15.63;9.13;;;9.10;94.60;;;;;;5063077;28;20393;-75
2022/11/15 05:28:07;;;;;;;13.32;8.23;;;9.10;94.60;;;;;;5071284;28;20032;-71
2022/11/15 05:30:32;;;;;;;13.07;8.60;;;9.10;94.70;;;;;;5066981;28;20033;-72
2022/11/15 05:32:58;;;;;;;14.18;8.52;;;9.10;94.70;;;;;;5062410;28;20482;-69
2022/11/15 05:35:34;;;;;;;13.45;8.60;;;9.20;94.60;;;;;;5069627;28;20068;-69
2022/11/15 05:37:59;;;;;;;12.95;8.57;;;9.30;94.50;;;;;;5071859;28;20028;-70
2022/11/15 05:40:26;;;;;;;13.77;8.35;;;9.40;94.50;;;;;;5062981;28;20455;-69
2022/11/15 05:42:51;;;;;;;12.52;8.00;;;9.40;94.30;;;;;;5064892;28;20103;-72
2022/11/15 05:45:17;;;;;;;14.93;7.88;;;9.40;94.30;;;;;;5061287;28;20120;-71
2022/11/15 05:47:43;;;;;;;12.43;8.52;;;9.40;94.20;;;;;;5068687;28;20132;-71
2022/11/15 05:50:12;;;;;;;15.10;8.77;;;9.50;94.20;;;;;;5070300;28;20506;-73
2022/11/15 05:52:38;;;;;;;14.43;8.18;;;9.50;94.20;;;;;;5068031;28;20028;-70
2022/11/15 05:55:06;;;;;;;13.88;8.55;;;9.50;94.20;;;;;;5066225;28;20589;-69
2022/11/15 05:57:32;;;;;;;12.80;7.55;;;9.50;94.20;;;;;;5069172;28;20094;-70
2022/11/15 05:59:57;;;;;;;13.55;7.90;;;9.50;94.30;;;;;;5069541;28;20563;-70
2022/11/15 06:02:23;;;;;;;13.07;8.00;;;9.50;94.20;;;;;;5061616;28;20036;-71
2022/11/15 06:04:48;;;;;;;12.93;7.38;;;9.50;94.30;;;;;;5062858;28;20029;-71
2022/11/15 06:07:14;;;;;;;13.65;8.32;;;9.60;94.30;;;;;;5065424;28;20031;-71
2022/11/15 06:09:39;;;;;;;14.00;7.97;;;9.60;94.20;;;;;;5069024;28;20140;-71
2022/11/15 06:12:05;;;;;;;12.73;8.18;;;9.60;94.20;;;;;;5067815;28;20033;-71
2022/11/15 06:14:31;;;;;;;12.88;8.40;;;9.60;94.30;;;;;;5070104;28;20542;-72
2022/11/15 06:16:56;;;;;;;11.35;6.97;;;9.60;94.50;;;;;;5069385;28;20059;-72
2022/11/15 06:19:21;;;;;;;13.30;7.55;;;9.60;94.30;;;;;;5070559;28;20032;-72
2022/11/15 06:21:47;;;;;;;14.07;7.75;;;9.70;94.40;;;;;;5064673;28;20037;-75
2022/11/15 06:24:12;;;;;;;12.77;8.15;;;9.70;94.30;;;;;;5069673;28;20024;-72
2022/11/15 06:26:38;;;;;;;12.63;7.85;;;9.70;94.30;;;;;;5061979;28;20123;-73
2022/11/15 06:29:04;;;;;;;15.75;8.82;;;9.70;94.40;;;;;;5070029;28;20032;-70
2022/11/15 06:31:30;;;;;;;15.02;8.25;;;9.70;94.40;;;;;;5071498;28;20036;-71
2022/11/15 06:33:56;;;;;;;13.10;7.18;;;9.80;94.20;;;;;;5067162;28;20362;-70
2022/11/15 06:36:21;;;;;;;13.57;8.38;;;9.80;94.30;;;;;;5064434;28;20851;-73
2022/11/15 06:38:46;;;;;;;11.05;7.65;;;9.80;94.30;;;;;;5068314;28;20472;-73
2022/11/15 06:41:13;;;;;;;12.15;7.93;;;9.90;94.20;;;;;;5064569;28;20036;-72
2022/11/15 06:43:40;;;;;;;12.45;7.28;;;9.80;94.10;;;;;;5064014;28;20354;-70
2022/11/15 06:46:06;;;;;;;13.25;7.80;;;9.90;94.10;;;;;;5063546;28;20145;-72
2022/11/15 06:48:33;;;;;;;12.32;7.65;;;9.80;94.20;;;;;;5064753;28;20480;-71
2022/11/15 06:51:00;;;;;;;12.57;7.70;;;9.90;94.20;;;;;;5071045;28;20040;-72
2022/11/15 06:53:27;;;;;;;14.65;7.60;;;9.90;94.10;;;;;;5069480;28;20358;-70
2022/11/15 06:55:52;;;;;;;13.35;7.35;;;10.00;93.90;;;;;;5072380;28;20028;-71
2022/11/15 06:58:20;;;;;;;12.88;7.65;;;9.90;94.00;;;;;;5062803;28;20059;-70
2022/11/15 07:00:45;;;;;;;13.40;7.75;;;10.00;94.00;;;;;;5067110;28;20079;-70
2022/11/15 07:03:11;;;;;;;13.48;7.43;;;10.00;94.00;;;;;;5071847;28;20571;-70
2022/11/15 07:05:36;;;;;;;10.95;7.30;;;10.00;94.00;;;;;;5071918;28;20024;-70
2022/11/15 07:08:02;;;;;;;15.38;7.60;;;10.00;94.00;;;;;;5071639;28;20047;-71
2022/11/15 07:10:28;;;;;;;13.52;6.95;;;10.00;94.00;;;;;;5068752;28;20032;-70
2022/11/15 07:12:55;;;;;;;12.32;7.32;;;10.00;94.00;;;;;;5069566;28;20040;-70
2022/11/15 07:15:23;;;;;;;12.15;7.22;;;10.00;93.80;;;;;;5083670;28;20044;-70
2022/11/15 07:17:49;;;;;;;14.88;7.32;;;10.00;93.90;;;;;;5071174;28;20040;-70
2022/11/15 07:20:15;;;;;;;12.50;7.25;;;10.00;93.90;;;;;;5071124;28;20021;-70
2022/11/15 07:22:41;;;;;;;11.23;7.10;;;10.00;93.90;;;;;;5070578;28;20045;-70
2022/11/15 07:25:08;;;;;;;15.18;7.85;;;10.00;94.10;;;;;;5071448;28;20431;-70
2022/11/15 07:27:34;;;;;;;13.88;7.80;;;10.00;94.10;;;;;;5068266;28;20032;-70
2022/11/15 07:30:00;;;;;;;13.27;8.10;;;10.00;94.20;;;;;;5070673;28;20039;-70
2022/11/15 07:32:25;;;;;;;12.20;7.65;;;10.00;93.90;;;;;;5068005;28;20040;-70
2022/11/15 07:34:51;;;;;;;15.65;8.05;;;10.00;93.90;;;;;;5067930;28;20044;-71
2022/11/15 07:37:16;;;;;;;10.85;7.00;;;10.10;93.90;;;;;;5071501;28;20047;-71
2022/11/15 07:39:42;;;;;;;14.88;8.55;;;10.00;93.80;;;;;;5068402;28;20082;-70
2022/11/15 07:44:52;;;;;;;13.60;7.72;;;10.10;93.60;;;;;;5066605;28;20039;-70
2022/11/15 07:47:17;;;;;;;13.00;7.32;;;10.10;93.60;;;;;;5070300;28;20048;-71
2022/11/15 07:49:43;;;;;;;10.85;6.93;;;10.10;93.70;;;;;;5065016;28;20044;-71
2022/11/15 07:52:08;;;;;;;13.00;7.13;;;10.20;93.40;;;;;;5067790;28;20452;-71
2022/11/15 07:54:34;;;;;;;10.98;6.57;;;10.20;93.20;;;;;;5070608;28;20024;-70
2022/11/15 07:56:59;;;;;;;10.55;6.72;;;10.20;93.20;;;;;;5069779;28;20384;-70
2022/11/15 07:59:25;;;;;;;10.27;6.63;;;10.20;93.30;;;;;;5067620;28;20036;-71
2022/11/15 08:01:50;;;;;;;11.48;7.15;;;10.20;93.30;;;;;;5071265;28;20052;-71
2022/11/15 08:04:16;;;;;;;10.93;6.78;;;10.10;93.40;;;;;;5064503;28;20064;-72
2022/11/15 08:06:41;;;;;;;11.30;7.18;;;10.00;93.50;;;;;;5071061;28;20032;-71
2022/11/15 08:09:07;;;;;;;12.55;7.05;;;10.00;93.70;;;;;;5069062;28;20325;-73
2022/11/15 08:11:32;;;;;;;11.23;7.13;;;9.90;93.90;;;;;;5070606;28;20068;-71
2022/11/15 08:13:58;;;;;;;11.98;6.85;;;9.80;94.10;;;;;;5068844;28;20070;-71
2022/11/15 08:16:24;;;;;;;11.10;6.90;;;9.80;94.30;;;;;;5069883;28;20035;-70
2022/11/15 08:18:49;;;;;;;10.98;6.93;;;10.00;94.20;;;;;;5071234;28;20032;-70
2022/11/15 08:21:21;;;;;;;11.85;6.72;;;10.10;94.10;;;;;;5069406;28;20024;-70
2022/11/15 08:23:46;;;;;;;10.60;6.55;;;10.40;93.70;;;;;;5067898;28;20063;-70
2022/11/15 08:26:12;;;;;;;12.77;6.20;;;10.60;93.10;;;;;;5071322;28;20137;-70
2022/11/15 08:28:37;;;;;;;9.85;6.75;;;10.70;92.50;;;;;;5067953;28;20486;-70
2022/11/15 08:31:03;;;;;;;11.00;6.53;;;10.90;92.00;;;;;;5064451;28;20044;-70
2022/11/15 08:33:30;;;;;;;10.50;6.40;;;11.00;91.60;;;;;;5071149;28;20111;-70
2022/11/15 08:36:00;;;;;;;9.48;5.65;;;11.10;91.40;;;;;;5067786;28;20185;-70
2022/11/15 08:38:28;;;;;;;9.07;5.50;;;11.10;91.50;;;;;;5068368;28;20036;-70
2022/11/15 08:40:59;;;;;;;9.48;5.20;;;11.20;91.40;;;;;;5069329;28;20108;-70
2022/11/15 08:43:24;;;;;;;10.05;5.40;;;11.10;91.00;;;;;;5069602;28;20029;-70
2022/11/15 08:45:50;;;;;;;13.32;5.35;;;11.20;91.10;;;;;;5070791;28;20071;-70
2022/11/15 08:48:15;;;;;;;11.18;5.88;;;11.30;91.00;;;;;;5068207;28;20121;-71
2022/11/15 08:50:43;;;;;;;10.07;5.32;;;11.30;90.90;;;;;;5071250;28;20043;-71
2022/11/15 08:53:10;;;;;;;10.27;5.32;;;11.40;90.90;;;;;;5069439;28;20024;-70
2022/11/15 08:55:37;;;;;;;7.32;4.60;;;11.40;90.60;;;;;;5071016;28;20429;-70
2022/11/15 08:58:03;;;;;;;8.50;4.85;;;11.50;90.50;;;;;;5066808;28;20037;-70
2022/11/15 09:00:29;;;;;;;8.63;4.90;;;11.60;90.60;;;;;;5074750;28;20028;-70
2022/11/15 09:02:54;;;;;;;9.32;5.18;;;11.60;90.50;;;;;;5070657;28;20028;-71
2022/11/15 09:05:20;;;;;;;11.40;5.25;;;11.50;90.30;;;;;;5072909;28;20021;-71
2022/11/15 09:07:45;;;;;;;9.32;4.90;;;11.60;90.20;;;;;;5067464;28;20369;-71
2022/11/15 09:10:11;;;;;;;10.90;5.15;;;11.60;90.30;;;;;;5070779;28;20040;-73
2022/11/15 09:12:37;;;;;;;8.85;5.50;;;11.60;90.30;;;;;;5073040;28;20450;-71
2022/11/15 09:15:03;;;;;;;9.70;5.10;;;11.60;90.30;;;;;;5073472;28;20337;-71
2022/11/15 09:17:29;;;;;;;7.63;5.15;;;11.60;90.60;;;;;;5072918;28;20058;-70
2022/11/15 09:19:54;;;;;;;10.00;4.40;;;11.70;90.40;;;;;;5073694;28;20024;-71
2022/11/15 09:22:20;;;;;;;8.48;4.82;;;11.70;90.10;;;;;;5072301;28;20528;-71
2022/11/15 09:24:45;;;;;;;7.75;4.53;;;11.70;89.90;;;;;;5074571;28;20312;-71
2022/11/15 09:27:12;;;;;;;7.03;4.53;;;11.80;90.00;;;;;;5073806;28;20408;-70
2022/11/15 09:29:37;;;;;;;8.90;4.55;;;11.80;89.50;;;;;;5076036;28;20060;-70
2022/11/15 09:32:03;;;;;;;8.45;4.55;;;11.80;89.70;;;;;;5073550;28;20071;-70
2022/11/15 09:34:28;;;;;;;7.90;4.70;;;11.80;89.10;;;;;;5073452;28;20036;-70
2022/11/15 09:36:54;;;;;;;8.30;4.53;;;11.80;89.20;;;;;;5070231;28;20150;-71
2022/11/15 09:39:19;;;;;;;8.05;4.25;;;11.90;89.50;;;;;;5073109;28;20107;-70
2022/11/15 09:41:58;;;;;;;9.70;4.85;;;12.10;89.80;;;;;;5076039;28;20093;-70
2022/11/15 09:44:45;;;;;;;7.75;4.55;;;12.10;89.30;;;;;;5069213;28;20028;-71
2022/11/15 09:47:43;;;;;;;8.80;4.55;;;12.00;88.90;;;;;;5069991;28;20056;-75
2022/11/15 09:50:28;;;;;;;8.95;4.38;;;12.10;89.00;;;;;;5073205;28;20108;-71
2022/11/15 09:52:55;;;;;;;7.85;4.30;;;12.10;88.80;;;;;;5071182;28;20033;-73
2022/11/15 09:55:32;;;;;;;9.65;4.40;;;12.10;89.10;;;;;;5077204;28;20431;-72
2022/11/15 09:58:08;;;;;;;9.35;3.92;;;12.10;88.80;;;;;;5071103;28;20040;-72
2022/11/15 10:00:39;;;;;;;7.55;4.22;;;12.10;89.20;;;;;;5073073;28;20025;-71
2022/11/15 10:03:16;;;;;;;9.00;4.20;;;12.10;88.80;;;;;;5072730;28;20427;-72
2022/11/15 10:05:44;;;;;;;6.55;3.90;;;12.10;88.70;;;;;;5070486;28;20044;-71
2022/11/15 10:08:28;;;;;;;7.07;4.00;;;12.20;88.60;;;;;;5071886;28;20086;-72
2022/11/15 10:10:58;;;;;;;5.88;3.75;;;12.20;89.00;;;;;;5064056;28;20044;-71
2022/11/15 10:13:30;;;;;;;8.40;4.63;;;12.30;88.60;;;;;;5071127;28;20436;-71
2022/11/15 10:16:09;;;;;;;8.90;4.40;;;12.30;88.10;;;;;;5071698;28;20032;-71
2022/11/15 10:18:35;;;;;;;7.93;4.15;;;12.40;87.90;;;;;;5069988;28;20037;-72
2022/11/15 10:21:16;;;;;;;9.70;3.83;;;12.50;88.00;;;;;;5076180;28;20063;-72
2022/11/15 10:23:42;;;;;;;;;;;12.60;87.50;;;;;;5072849;28;20058;-73
2022/11/15 10:26:13;;;;;;;5.72;3.38;;;12.60;87.50;;;;;;5070657;28;19916;-71
2022/11/15 10:28:38;;;;;;;8.27;4.68;;;12.60;87.40;;;;;;5075844;28;20037;-71
2022/11/15 10:31:24;;;;;;;8.02;3.72;;;12.60;87.90;;;;;;5069048;28;20123;-73
2022/11/15 10:33:50;;;;;;;8.15;3.67;;;12.50;87.70;;;;;;5078045;28;20480;-71
2022/11/15 10:36:19;;;;;;;9.98;4.00;;;12.50;88.00;;;;;;5067422;28;20443;-71
2022/11/15 10:38:48;;;;;;;7.30;4.00;;;12.40;88.00;;;;;;5065613;28;20430;-71
2022/11/15 10:41:14;;;;;;;5.90;3.80;;;12.30;88.00;;;;;;5069321;28;20372;-72
2022/11/15 10:43:39;;;;;;;8.43;3.78;;;12.20;88.20;;;;;;5064016;28;20044;-72
2022/11/15 10:46:23;;;;;;;6.47;3.72;;;12.20;88.50;;;;;;5071298;28;20484;-72
2022/11/15 10:48:48;;;;;;;6.45;4.10;;;12.30;88.50;;;;;;5071963;28;20469;-72
2022/11/15 10:51:29;;;;;;;11.65;4.45;;;12.30;88.50;;;;;;5071285;28;20112;-72
2022/11/15 10:53:58;;;;;;;8.07;4.22;;;12.40;88.60;;;;;;5072320;28;20104;-71
2022/11/15 10:56:26;;;;;;;8.57;4.30;;;12.50;88.30;;;;;;5063744;28;20043;-73
2022/11/15 10:58:55;;;;;;;11.13;4.13;;;12.60;88.00;;;;;;5069638;28;20037;-73
2022/11/15 11:01:29;;;;;;;6.50;3.78;;;12.70;87.50;;;;;;5070083;28;20042;-72
2022/11/15 11:04:09;;;;;;;9.65;4.00;;;12.80;87.10;;;;;;5069473;28;20021;-73
2022/11/15 11:06:52;;;;;;;9.10;4.25;;;12.80;86.80;;;;;;5072132;28;20039;-71
2022/11/15 11:09:33;;;;;;;6.80;4.00;;;12.90;86.40;;;;;;5062287;28;20023;-71
2022/11/15 11:12:00;;;;;;;9.25;4.25;;;13.00;86.70;;;;;;5071162;28;20044;-72
2022/11/15 11:14:31;;;;;;;9.02;4.38;;;13.10;85.80;;;;;;5071474;28;20510;-73
2022/11/15 11:17:09;;;;;;;8.45;4.13;;;13.30;86.00;;;;;;5072022;28;20052;-72
2022/11/15 11:19:53;;;;;;;9.02;4.07;;;13.60;85.10;;;;;;5070618;28;20372;-72
2022/11/15 11:22:23;;;;;;;6.53;3.97;;;13.90;83.90;;;;;;5067788;28;20099;-71
2022/11/15 11:25:30;;;;;;;7.88;3.60;;;14.10;82.80;;;;;;5084276;28;20162;-72
2022/11/15 11:28:10;;;;;;;7.03;3.53;;;14.50;82.20;;;;;;5071646;28;20024;-71
2022/11/15 11:31:16;;;;;;;6.60;3.92;;;14.80;81.60;;;;;;5071105;28;20045;-73
2022/11/15 11:33:48;;;;;;;6.07;3.38;;;14.80;81.70;;;;;;5066001;28;20115;-72
2022/11/15 11:36:20;;;;;;;7.22;3.10;;;15.00;80.50;;;;;;5070577;28;20032;-72
2022/11/15 11:38:57;;;;;;;6.60;3.17;;;15.30;80.20;;;;;;5068619;28;20044;-73
2022/11/15 11:41:37;;;;;;;5.32;3.03;;;15.00;80.10;;;;;;5069192;28;20094;-72
2022/11/15 11:44:21;;;;;;;6.93;3.40;;;15.00;80.90;;;;;;5068258;28;20043;-72
2022/11/15 11:46:59;;;;;;;5.60;3.13;;;15.20;80.10;;;;;;5059438;28;20107;-72
2022/11/15 11:49:33;;;;;;;7.05;3.20;;;15.20;78.90;;;;;;5071797;28;20035;-71
2022/11/15 11:52:11;;;;;;;7.10;2.80;;;15.50;79.00;;;;;;5083409;28;20481;-71
2022/11/15 11:54:53;;;;;;;6.15;3.10;;;15.60;78.00;;;;;;5080340;28;20033;-71
2022/11/15 11:57:28;;;;;;;5.40;3.05;;;15.50;77.50;;;;;;5064584;28;20570;-71
2022/11/15 12:00:02;;;;;;;6.43;3.00;;;15.30;78.50;;;;;;5072569;28;20024;-71
2022/11/15 12:02:32;;;;;;;5.22;2.95;;;15.30;78.30;;;;;;5078939;28;20170;-72
2022/11/15 12:05:29;;;;;;;5.60;2.83;;;15.60;79.40;;;;;;5084126;28;20029;-71
2022/11/15 12:08:04;;;;;;;5.07;2.67;;;15.80;78.50;;;;;;5071957;28;20059;-72
2022/11/15 12:10:32;;;;;;;6.90;2.75;;;16.00;78.30;;;;;;5079091;28;20511;-75
2022/11/15 12:13:18;;;;;;;4.97;2.58;;;16.10;77.50;;;;;;5060029;28;20092;-72
2022/11/15 12:15:51;;;;;;;5.00;2.63;;;15.90;75.90;;;;;;5070803;28;20122;-72
2022/11/15 12:18:16;;;;;;;3.97;2.35;;;15.80;76.50;;;;;;5069399;28;20070;-72
2022/11/15 12:21:14;;;;;;;4.93;2.90;;;15.20;77.60;;;;;;5070184;28;20032;-72
2022/11/15 12:23:50;;;;;;;5.45;2.60;;;15.20;78.80;;;;;;5053532;28;20041;-71
2022/11/15 12:26:34;;;;;;;7.20;2.70;;;14.90;78.90;;;;;;5070239;28;20040;-72
2022/11/15 12:29:05;;;;;;;5.40;2.78;;;15.00;79.60;;;;;;5057610;28;20040;-71
2022/11/15 12:31:36;;;;;;;6.78;3.15;;;14.80;79.90;;;;;;5073226;28;20039;-72
2022/11/15 12:34:02;;;;;;;;;;;14.80;79.90;;;;;;5075285;28;20485;-72
2022/11/15 12:36:41;;;;;;;4.57;2.60;;;14.80;80.00;;;;;;5074470;28;19927;-73
2022/11/15 12:39:10;;;;;;;4.93;2.67;;;15.10;79.50;;;;;;5068732;28;20035;-72
2022/11/15 12:41:55;;;;;;;5.97;2.88;;;15.40;79.30;;;;;;5071032;28;20040;-71
2022/11/15 12:44:36;;;;;;;5.35;2.60;;;15.40;78.60;;;;;;5072001;28;20421;-73
2022/11/15 12:47:21;;;;;;;5.07;2.55;;;15.40;78.20;;;;;;5073207;28;20045;-71
2022/11/15 12:49:48;;;;;;;4.68;2.67;;;15.30;77.90;;;;;;5076740;28;20108;-71
2022/11/15 12:52:13;;;;;;;4.53;2.92;;;15.40;77.90;;;;;;5067795;28;20040;-72
2022/11/15 12:54:42;;;;;;;5.85;2.75;;;15.20;78.60;;;;;;5072978;28;20040;-71
2022/11/15 12:57:07;;;;;;;11.30;3.38;;;15.20;78.70;;;;;;5071779;28;20033;-71
2022/11/15 12:59:58;;;;;;;5.50;2.63;;;15.30;78.20;;;;;;5068013;28;20042;-71
2022/11/15 13:02:45;;;;;;;6.18;2.88;;;15.40;78.50;;;;;;5075690;28;20167;-72
2022/11/15 13:05:19;;;;;;;6.55;2.42;;;15.50;77.70;;;;;;5064433;28;20397;-72
2022/11/15 13:07:45;;;;;;;6.18;2.78;;;15.70;78.20;;;;;;5068785;28;20044;-75
2022/11/15 13:10:13;;;;;;;5.03;2.72;;;16.00;77.70;;;;;;5065683;28;20037;-72
2022/11/15 13:12:44;;;;;;;5.63;2.38;;;16.10;77.10;;;;;;5066446;28;20041;-74
2022/11/15 13:15:13;;;;;;;6.07;2.72;;;16.20;75.30;;;;;;5066133;28;20028;-72
2022/11/15 13:17:53;;;;;;;4.72;2.47;;;16.30;74.70;;;;;;5069429;28;20025;-73